Time;durP1;ratioP1;P1;durP2;ratioP2;P2;SDS_P1;SDS_P2;PMS_P1;PMS_P2;Temp;Humidity;BMP_temperature;BMP_pressure;BME280_temperature;BME280_humidity;BME280_pressure;Samples;Min_cycle;Max_cycle;Signal;HPM_P1;HPM_P2
2023/03/14 00:02:21;;;;;;;6.90;1.40;;;11.30;99.90;;;;;;5071404;28;20415;-50
2023/03/14 00:04:47;;;;;;;8.43;1.83;;;11.40;99.90;;;;;;5071323;28;20032;-50
2023/03/14 00:07:13;;;;;;;6.10;1.50;;;11.40;99.90;;;;;;5070752;28;20025;-53
2023/03/14 00:09:39;;;;;;;6.97;1.53;;;11.50;99.90;;;;;;5070813;28;20036;-52
2023/03/14 00:12:07;;;;;;;7.70;1.53;;;11.50;99.90;;;;;;5071507;28;20130;-52
2023/03/14 00:14:32;;;;;;;8.53;1.57;;;11.60;99.90;;;;;;5071210;28;20043;-49
2023/03/14 00:16:58;;;;;;;9.00;1.53;;;11.60;99.90;;;;;;5071185;28;20037;-49
2023/03/14 00:19:24;;;;;;;6.07;1.30;;;11.60;99.90;;;;;;5071223;28;20430;-53
2023/03/14 00:21:49;;;;;;;7.30;1.53;;;11.60;99.90;;;;;;5080302;22;20052;-54
2023/03/14 00:24:15;;;;;;;7.93;1.57;;;11.50;99.90;;;;;;5049379;28;20039;-52
2023/03/14 00:26:41;;;;;;;9.80;1.50;;;11.50;99.90;;;;;;5050839;28;20033;-55
2023/03/14 00:29:07;;;;;;;5.83;1.70;;;11.50;99.90;;;;;;5050705;28;20025;-55
2023/03/14 00:31:33;;;;;;;8.63;1.50;;;11.50;99.90;;;;;;5052368;28;20025;-53
2023/03/14 00:33:59;;;;;;;9.23;2.57;;;11.50;99.90;;;;;;5052131;28;20032;-49
2023/03/14 00:36:25;;;;;;;8.67;2.20;;;11.60;99.90;;;;;;5069902;28;20541;-48
2023/03/14 00:38:51;;;;;;;11.60;2.63;;;11.70;99.90;;;;;;5069060;28;20044;-48
2023/03/14 00:41:22;;;;;;;8.70;1.70;;;11.50;99.90;;;;;;5070392;28;20035;-50
2023/03/14 00:43:48;;;;;;;5.27;1.23;;;11.30;99.90;;;;;;5069974;28;20047;-51
2023/03/14 00:46:14;;;;;;;5.93;1.00;;;11.10;99.90;;;;;;5052434;28;20025;-49
2023/03/14 00:48:45;;;;;;;6.80;1.17;;;10.90;99.90;;;;;;5052472;28;20636;-49
2023/03/14 00:51:13;;;;;;;8.40;1.73;;;10.70;99.90;;;;;;5052079;28;20165;-49
2023/03/14 00:53:43;;;;;;;5.20;1.10;;;10.50;99.90;;;;;;5069258;28;20470;-51
2023/03/14 00:56:11;;;;;;;6.03;1.10;;;10.30;99.90;;;;;;5070207;28;20059;-48
2023/03/14 00:58:37;;;;;;;5.30;1.13;;;10.20;99.90;;;;;;5069953;28;20031;-50
2023/03/14 01:01:13;;;;;;;2.87;1.00;;;10.10;99.90;;;;;;5051906;28;20115;-50
2023/03/14 01:03:39;;;;;;;7.77;1.00;;;10.00;99.90;;;;;;5069627;28;20560;-54
2023/03/14 01:06:26;;;;;;;4.23;0.80;;;10.00;99.90;;;;;;5068507;28;20194;-50
2023/03/14 01:08:52;;;;;;;5.70;0.97;;;9.90;99.90;;;;;;5069444;28;20565;-52
2023/03/14 01:11:25;;;;;;;5.23;1.17;;;9.90;99.90;;;;;;5052139;28;20719;-50
2023/03/14 01:13:51;;;;;;;6.47;1.10;;;9.80;99.90;;;;;;5069757;28;20028;-49
2023/03/14 01:16:18;;;;;;;9.67;1.40;;;9.80;99.90;;;;;;5069962;28;20464;-51
2023/03/14 01:18:45;;;;;;;6.83;1.57;;;9.80;99.90;;;;;;5051778;28;20052;-52
2023/03/14 01:21:17;;;;;;;6.23;1.10;;;9.80;99.90;;;;;;5069724;28;20036;-53
2023/03/14 01:23:44;;;;;;;4.80;1.00;;;9.80;99.90;;;;;;5050914;28;20028;-49
2023/03/14 01:26:12;;;;;;;6.90;1.20;;;9.90;99.90;;;;;;5051836;28;20028;-51
2023/03/14 01:28:38;;;;;;;5.97;1.03;;;9.90;99.90;;;;;;5051538;28;20116;-50
2023/03/14 01:31:06;;;;;;;5.60;1.33;;;9.90;99.90;;;;;;5051909;28;20426;-52
2023/03/14 01:33:31;;;;;;;7.23;1.30;;;9.90;99.90;;;;;;5051486;28;20085;-52
2023/03/14 01:35:57;;;;;;;7.87;1.30;;;9.80;99.90;;;;;;5069485;28;20024;-54
2023/03/14 01:38:23;;;;;;;8.17;1.10;;;9.80;99.90;;;;;;5068658;28;20476;-50
2023/03/14 01:40:48;;;;;;;7.60;1.23;;;9.80;99.90;;;;;;5051467;28;20032;-52
2023/03/14 01:43:19;;;;;;;9.50;1.40;;;9.80;99.90;;;;;;5069157;28;20111;-48
2023/03/14 01:46:04;;;;;;;6.67;0.90;;;9.80;99.90;;;;;;5051543;28;20025;-52
2023/03/14 01:48:44;;;;;;;5.97;1.13;;;9.80;99.90;;;;;;5051296;28;20064;-50
2023/03/14 01:51:15;;;;;;;6.93;1.27;;;9.80;99.90;;;;;;5068564;28;20024;-49
2023/03/14 01:53:43;;;;;;;6.20;1.20;;;9.80;99.90;;;;;;5068253;28;20409;-50
2023/03/14 01:56:13;;;;;;;6.13;1.00;;;9.80;99.90;;;;;;5051445;28;20036;-49
2023/03/14 01:58:43;;;;;;;6.97;0.90;;;9.80;99.90;;;;;;5050945;28;20079;-49
2023/03/14 02:01:09;;;;;;;7.17;1.43;;;9.70;99.90;;;;;;5051167;28;20120;-49
2023/03/14 02:03:45;;;;;;;5.60;1.23;;;9.80;99.90;;;;;;5050602;28;20063;-54
2023/03/14 02:06:11;;;;;;;8.17;1.23;;;9.80;99.90;;;;;;5050615;28;20052;-53
2023/03/14 02:08:40;;;;;;;8.77;1.30;;;9.80;99.90;;;;;;5050128;28;20033;-51
2023/03/14 02:11:11;;;;;;;4.63;1.00;;;9.90;99.90;;;;;;5051191;28;20134;-52
2023/03/14 02:13:48;;;;;;;9.63;1.27;;;9.90;99.90;;;;;;5050707;28;20032;-52
2023/03/14 02:16:35;;;;;;;7.57;1.10;;;9.80;99.90;;;;;;5068528;28;20033;-51
2023/03/14 02:19:20;;;;;;;7.27;1.30;;;9.80;99.90;;;;;;5050919;28;20032;-51
2023/03/14 02:22:12;;;;;;;7.10;1.30;;;9.80;99.90;;;;;;5050666;28;20118;-53
2023/03/14 02:25:20;;;;;;;8.83;1.10;;;9.80;99.90;;;;;;5050069;28;20028;-50
2023/03/14 02:27:47;;;;;;;7.57;1.27;;;9.90;99.90;;;;;;5068950;28;20028;-51
2023/03/14 02:30:23;;;;;;;7.80;1.03;;;9.90;99.90;;;;;;5051093;28;20025;-53
2023/03/14 02:32:54;;;;;;;8.53;1.10;;;9.80;99.90;;;;;;5050935;28;20036;-52
2023/03/14 02:35:23;;;;;;;7.43;1.40;;;9.90;99.90;;;;;;5050760;28;20032;-51
2023/03/14 02:37:53;;;;;;;5.80;1.10;;;9.90;99.90;;;;;;5049747;28;20024;-51
2023/03/14 02:40:20;;;;;;;6.27;1.50;;;9.90;99.90;;;;;;5050870;28;20040;-54
2023/03/14 02:42:49;;;;;;;5.40;1.10;;;9.90;99.90;;;;;;5050357;28;20497;-51
2023/03/14 02:45:16;;;;;;;11.10;1.40;;;10.00;99.90;;;;;;5050597;28;20067;-51
2023/03/14 02:47:49;;;;;;;7.87;1.33;;;10.00;99.90;;;;;;5050159;28;20115;-50
2023/03/14 02:50:20;;;;;;;8.13;1.37;;;10.00;99.90;;;;;;5050820;28;20369;-54
2023/03/14 02:52:46;;;;;;;6.27;1.27;;;10.00;99.90;;;;;;5067645;28;20024;-52
2023/03/14 02:55:12;;;;;;;5.90;1.40;;;10.00;99.90;;;;;;5068733;28;20439;-52
2023/03/14 02:57:40;;;;;;;9.18;1.30;;;10.00;99.90;;;;;;5050315;28;20036;-51
2023/03/14 03:00:07;;;;;;;7.83;1.47;;;10.00;99.90;;;;;;5068664;28;20162;-51
2023/03/14 03:02:35;;;;;;;6.67;1.20;;;10.00;99.90;;;;;;5052103;28;20035;-50
2023/03/14 03:05:01;;;;;;;7.93;1.37;;;10.00;99.90;;;;;;5072576;28;20028;-49
2023/03/14 03:07:27;;;;;;;7.97;1.30;;;10.00;99.90;;;;;;5053822;28;20418;-53
2023/03/14 03:09:55;;;;;;;7.23;1.10;;;10.00;99.90;;;;;;5054222;28;20590;-48
2023/03/14 03:12:21;;;;;;;9.90;1.43;;;10.00;99.90;;;;;;5072219;28;20151;-51
2023/03/14 03:14:46;;;;;;;5.20;1.10;;;10.00;99.90;;;;;;5053890;28;20074;-50
2023/03/14 03:17:14;;;;;;;6.30;1.10;;;10.00;99.90;;;;;;5053850;28;20120;-52
2023/03/14 03:19:40;;;;;;;9.03;1.40;;;10.00;99.90;;;;;;5054020;28;20487;-52
2023/03/14 03:22:06;;;;;;;7.83;1.30;;;10.00;99.90;;;;;;5052326;28;20492;-52
2023/03/14 03:24:32;;;;;;;6.83;1.27;;;10.00;99.90;;;;;;5051448;28;20052;-51
2023/03/14 03:26:57;;;;;;;9.27;1.40;;;10.10;99.90;;;;;;5071156;28;20578;-51
2023/03/14 03:29:23;;;;;;;9.17;1.40;;;10.00;99.90;;;;;;5071719;28;20021;-51
2023/03/14 03:31:50;;;;;;;10.23;1.40;;;10.00;99.90;;;;;;5053782;28;20032;-51
2023/03/14 03:34:16;;;;;;;9.13;1.40;;;10.00;99.90;;;;;;5053681;28;20036;-52
2023/03/14 03:36:42;;;;;;;11.60;1.40;;;10.00;99.90;;;;;;5071592;28;20036;-54
2023/03/14 03:39:08;;;;;;;10.20;1.67;;;10.00;99.90;;;;;;5071123;28;20024;-49
2023/03/14 03:41:34;;;;;;;6.97;1.30;;;10.00;99.90;;;;;;5053801;28;20040;-52
2023/03/14 03:44:01;;;;;;;5.47;1.10;;;10.00;99.90;;;;;;5053091;28;20122;-52
2023/03/14 03:46:26;;;;;;;7.97;1.20;;;10.00;99.90;;;;;;5053484;28;20638;-53
2023/03/14 03:48:57;;;;;;;9.40;1.37;;;9.90;99.90;;;;;;5053492;28;20024;-51
2023/03/14 03:51:23;;;;;;;5.17;1.23;;;9.80;99.90;;;;;;5071333;28;20039;-51
2023/03/14 03:53:49;;;;;;;7.87;1.60;;;9.70;99.90;;;;;;5052812;28;20033;-51
2023/03/14 03:56:19;;;;;;;7.33;1.37;;;9.60;99.90;;;;;;5053313;28;20113;-51
2023/03/14 03:58:45;;;;;;;9.80;1.37;;;9.50;99.90;;;;;;5053336;28;20066;-50
2023/03/14 04:01:11;;;;;;;6.63;1.30;;;9.60;99.90;;;;;;5071619;28;20029;-49
2023/03/14 04:03:40;;;;;;;7.90;1.60;;;9.50;99.90;;;;;;5053115;28;20511;-50
2023/03/14 04:06:09;;;;;;;10.98;1.17;;;9.60;99.90;;;;;;5053228;28;20316;-50
2023/03/14 04:08:37;;;;;;;9.10;1.57;;;9.60;99.90;;;;;;5052659;28;20024;-52
2023/03/14 04:11:04;;;;;;;7.43;2.00;;;9.60;99.90;;;;;;5053571;28;20029;-50
2023/03/14 04:13:45;;;;;;;6.03;1.27;;;9.70;99.90;;;;;;5070382;28;20032;-51
2023/03/14 04:16:22;;;;;;;8.27;1.13;;;9.70;99.90;;;;;;5053664;28;20029;-54
2023/03/14 04:18:49;;;;;;;5.40;1.20;;;9.70;99.90;;;;;;5053389;28;20104;-53
2023/03/14 04:21:18;;;;;;;8.52;1.38;;;9.70;99.90;;;;;;5052668;28;20452;-52
2023/03/14 04:23:48;;;;;;;7.53;1.80;;;9.50;99.90;;;;;;5051810;28;20039;-53
2023/03/14 04:26:14;;;;;;;8.20;1.70;;;9.40;99.90;;;;;;5053408;28;20134;-54
2023/03/14 04:28:40;;;;;;;7.83;1.30;;;9.30;99.90;;;;;;5071184;28;20100;-52
2023/03/14 04:31:09;;;;;;;8.87;1.23;;;9.10;99.90;;;;;;5053441;28;20021;-52
2023/03/14 04:33:36;;;;;;;7.87;1.37;;;9.10;99.90;;;;;;5053056;28;20039;-52
2023/03/14 04:36:04;;;;;;;7.53;1.40;;;9.00;99.90;;;;;;5070855;28;20434;-53
2023/03/14 04:38:31;;;;;;;9.73;1.93;;;8.90;99.90;;;;;;5051996;28;20040;-52
2023/03/14 04:40:57;;;;;;;8.07;1.80;;;8.80;99.90;;;;;;5048141;28;20024;-49
2023/03/14 04:43:28;;;;;;;8.73;1.80;;;8.80;99.90;;;;;;5047120;28;20028;-56
2023/03/14 04:46:02;;;;;;;5.83;1.27;;;8.80;99.90;;;;;;5048279;28;20055;-54
2023/03/14 04:48:28;;;;;;;6.87;1.27;;;8.70;99.90;;;;;;5049015;28;20520;-51
2023/03/14 04:50:54;;;;;;;5.90;1.30;;;8.70;99.90;;;;;;5049036;28;20124;-55
2023/03/14 04:53:21;;;;;;;2.27;1.00;;;8.60;99.90;;;;;;5047653;28;20412;-52
2023/03/14 04:55:50;;;;;;;4.67;1.30;;;8.60;99.90;;;;;;5051373;28;20037;-53
2023/03/14 04:58:17;;;;;;;3.47;0.80;;;8.60;99.90;;;;;;5048926;28;20039;-54
2023/03/14 05:00:44;;;;;;;4.10;1.30;;;8.50;99.90;;;;;;5049536;28;20032;-50
2023/03/14 05:03:33;;;;;;;13.90;6.78;;;8.40;99.90;;;;;;5032146;28;20036;-50
2023/03/14 05:06:17;;;;;;;3.30;1.07;;;8.40;99.90;;;;;;5070614;28;20086;-54
2023/03/14 05:08:52;;;;;;;4.10;1.30;;;8.40;99.90;;;;;;5069919;28;20041;-50
2023/03/14 05:11:36;;;;;;;5.50;1.80;;;8.40;99.90;;;;;;5070694;28;20042;-52
2023/03/14 05:14:07;;;;;;;6.83;2.07;;;8.40;99.90;;;;;;5070276;28;20028;-51
2023/03/14 05:16:53;;;;;;;6.30;2.30;;;8.40;99.90;;;;;;5019212;28;20036;-54
2023/03/14 05:19:35;;;;;;;11.17;3.00;;;8.40;99.90;;;;;;5070219;28;20056;-50
2023/03/14 05:22:19;;;;;;;7.23;3.67;;;8.30;99.90;;;;;;5069918;28;20063;-53
2023/03/14 05:24:45;;;;;;;10.70;4.10;;;8.40;99.90;;;;;;5069022;28;20033;-54
2023/03/14 05:27:20;;;;;;;12.40;4.57;;;8.40;99.90;;;;;;5051670;28;20058;-53
2023/03/14 05:30:05;;;;;;;12.93;5.37;;;8.40;99.90;;;;;;5069996;28;20190;-55
2023/03/14 05:32:49;;;;;;;11.57;4.67;;;8.40;99.90;;;;;;5050303;28;20048;-53
2023/03/14 05:35:36;;;;;;;6.07;2.00;;;8.40;99.90;;;;;;5049949;28;20037;-58
2023/03/14 05:38:21;;;;;;;6.33;1.67;;;8.40;99.90;;;;;;5049422;28;20063;-54
2023/03/14 05:41:04;;;;;;;3.97;1.67;;;8.40;99.90;;;;;;5048621;28;20028;-53
2023/03/14 05:43:53;;;;;;;2.72;1.10;;;8.40;99.90;;;;;;5051120;28;20032;-51
2023/03/14 05:46:50;;;;;;;2.70;1.07;;;8.40;99.90;;;;;;5054783;28;20025;-51
2023/03/14 05:49:28;;;;;;;5.70;1.17;;;8.40;99.90;;;;;;5070119;28;20071;-53
2023/03/14 05:52:11;;;;;;;5.60;1.23;;;8.40;99.90;;;;;;5051175;28;20032;-54
2023/03/14 05:54:54;;;;;;;19.80;11.00;;;8.40;99.90;;;;;;5050915;28;20048;-49
2023/03/14 05:57:35;;;;;;;11.80;4.67;;;8.40;99.90;;;;;;5069338;28;20072;-52
2023/03/14 06:00:19;;;;;;;5.90;1.20;;;8.50;99.90;;;;;;5069793;28;20047;-55
2023/03/14 06:02:59;;;;;;;8.50;1.83;;;8.50;99.90;;;;;;5051011;28;20472;-54
2023/03/14 06:05:30;;;;;;;3.33;1.23;;;8.50;99.90;;;;;;5051482;28;20374;-51
2023/03/14 06:07:59;;;;;;;5.30;1.23;;;8.50;99.90;;;;;;5050014;28;20024;-50
2023/03/14 06:10:27;;;;;;;4.13;1.13;;;8.50;99.90;;;;;;5051386;28;20029;-54
2023/03/14 06:12:53;;;;;;;5.57;1.23;;;8.50;99.90;;;;;;5051027;28;20028;-49
2023/03/14 06:15:19;;;;;;;3.73;0.93;;;8.60;99.90;;;;;;5051234;28;20025;-52
2023/03/14 06:17:48;;;;;;;5.43;1.20;;;8.60;99.90;;;;;;5050913;28;20045;-52
2023/03/14 06:20:15;;;;;;;4.20;1.03;;;8.60;99.90;;;;;;5034565;28;20032;-51
2023/03/14 06:22:41;;;;;;;2.50;1.10;;;8.60;99.90;;;;;;5061542;22;20071;-50
2023/03/14 06:25:09;;;;;;;1.87;0.70;;;8.60;99.90;;;;;;5051001;28;20051;-50
2023/03/14 06:27:35;;;;;;;5.47;0.97;;;8.70;99.90;;;;;;5050875;28;20032;-54
2023/03/14 06:30:02;;;;;;;3.63;1.00;;;8.70;99.90;;;;;;5051756;28;20024;-53
2023/03/14 06:32:30;;;;;;;1.85;0.80;;;8.80;99.90;;;;;;5058792;28;20134;-54
2023/03/14 06:35:00;;;;;;;4.07;0.90;;;8.80;99.90;;;;;;5070602;28;20032;-56
2023/03/14 06:37:30;;;;;;;3.53;1.40;;;8.80;99.90;;;;;;5087868;28;20036;-48
2023/03/14 06:39:56;;;;;;;3.17;0.80;;;8.90;99.90;;;;;;5070885;28;20039;-55
2023/03/14 06:42:46;;;;;;;3.13;1.13;;;9.00;99.90;;;;;;5071923;28;20038;-53
2023/03/14 06:45:14;;;;;;;3.10;1.00;;;9.00;99.90;;;;;;5069069;28;20135;-54
2023/03/14 06:47:40;;;;;;;8.60;5.13;;;9.10;99.90;;;;;;5069446;28;20119;-54
2023/03/14 06:50:08;;;;;;;2.73;1.47;;;9.20;99.90;;;;;;5070397;28;20085;-48
2023/03/14 06:52:36;;;;;;;2.20;0.63;;;9.30;99.90;;;;;;5068784;28;20115;-53
2023/03/14 06:55:05;;;;;;;4.43;1.60;;;9.30;99.90;;;;;;5088431;28;20040;-50
2023/03/14 06:57:31;;;;;;;3.90;1.20;;;9.20;99.90;;;;;;5069457;28;20119;-53
2023/03/14 06:59:57;;;;;;;1.77;0.50;;;9.20;99.90;;;;;;5070577;28;20039;-52
2023/03/14 07:02:24;;;;;;;5.27;0.60;;;9.20;99.90;;;;;;5070294;28;20043;-53
2023/03/14 07:04:50;;;;;;;1.43;0.70;;;9.30;99.90;;;;;;5069993;28;20027;-53
2023/03/14 07:07:16;;;;;;;0.50;0.33;;;9.30;99.90;;;;;;5069750;28;20020;-54
2023/03/14 07:09:43;;;;;;;0.97;0.40;;;9.30;99.90;;;;;;5069742;28;20028;-54
2023/03/14 07:12:09;;;;;;;2.80;0.70;;;9.30;99.90;;;;;;5070224;28;20039;-52
2023/03/14 07:14:35;;;;;;;1.77;0.40;;;9.30;99.90;;;;;;5069912;28;20036;-53
2023/03/14 07:17:01;;;;;;;2.47;1.00;;;9.30;99.90;;;;;;5069841;28;20032;-55
2023/03/14 07:19:27;;;;;;;2.83;1.27;;;9.30;99.90;;;;;;5070412;28;20054;-56
2023/03/14 07:21:53;;;;;;;3.73;1.33;;;9.40;99.90;;;;;;5070226;28;20028;-54
2023/03/14 07:24:23;;;;;;;4.63;1.40;;;9.40;99.90;;;;;;5069538;28;20028;-55
2023/03/14 07:26:48;;;;;;;5.30;2.10;;;9.50;99.90;;;;;;5069876;28;20499;-53
2023/03/14 07:29:14;;;;;;;5.20;1.93;;;9.50;99.90;;;;;;5070195;28;20085;-52
2023/03/14 07:31:41;;;;;;;4.83;2.17;;;9.50;99.90;;;;;;5070508;28;20031;-54
2023/03/14 07:34:07;;;;;;;6.07;2.80;;;9.60;99.90;;;;;;5070178;28;20036;-54
2023/03/14 07:36:36;;;;;;;6.50;2.87;;;9.60;99.90;;;;;;5069793;28;20036;-53
2023/03/14 07:39:04;;;;;;;7.07;2.50;;;9.60;99.90;;;;;;5069418;28;20115;-54
2023/03/14 07:42:08;;;;;;;3.03;1.30;;;9.60;99.90;;;;;;5072393;28;20476;-52
2023/03/14 07:44:52;;;;;;;6.37;2.00;;;9.70;99.90;;;;;;5069878;28;20369;-50
2023/03/14 07:47:18;;;;;;;4.10;1.93;;;9.70;99.90;;;;;;5088138;28;20020;-52
2023/03/14 07:49:44;;;;;;;7.83;3.10;;;9.70;99.90;;;;;;5089761;28;20112;-54
2023/03/14 07:52:09;;;;;;;7.33;2.73;;;9.70;99.90;;;;;;5091510;28;20020;-52
2023/03/14 07:54:35;;;;;;;6.80;2.97;;;9.70;99.90;;;;;;5090852;28;20036;-56
2023/03/14 07:57:01;;;;;;;8.13;3.20;;;9.70;99.90;;;;;;5091270;28;20024;-53
2023/03/14 07:59:27;;;;;;;7.37;3.30;;;9.70;99.90;;;;;;5091717;28;20081;-52
2023/03/14 08:01:53;;;;;;;7.87;3.80;;;9.70;99.90;;;;;;5091370;28;20024;-52
2023/03/14 08:04:19;;;;;;;7.37;4.50;;;9.70;99.90;;;;;;5089163;28;20073;-53
2023/03/14 08:06:44;;;;;;;8.70;4.37;;;9.70;99.90;;;;;;5089753;28;20040;-52
2023/03/14 08:09:10;;;;;;;9.47;4.80;;;9.80;99.90;;;;;;5091085;28;20432;-53
2023/03/14 08:11:36;;;;;;;9.27;4.70;;;9.80;99.90;;;;;;5091685;28;20454;-48
2023/03/14 08:14:02;;;;;;;7.17;3.90;;;9.90;99.90;;;;;;5091708;28;20055;-52
2023/03/14 08:16:28;;;;;;;6.73;3.00;;;10.00;99.90;;;;;;5091009;28;20391;-53
2023/03/14 08:18:53;;;;;;;3.60;2.33;;;10.10;99.90;;;;;;5091173;28;20032;-51
2023/03/14 08:21:19;;;;;;;4.33;2.43;;;10.20;99.90;;;;;;5091166;28;20028;-51
2023/03/14 08:23:45;;;;;;;5.80;2.50;;;10.30;99.90;;;;;;5072004;28;20518;-54
2023/03/14 08:26:10;;;;;;;6.90;4.00;;;10.50;99.90;;;;;;5091610;28;20433;-50
2023/03/14 08:28:36;;;;;;;11.70;6.60;;;10.60;99.90;;;;;;5090977;28;20028;-55
2023/03/14 08:31:02;;;;;;;12.47;6.07;;;10.70;99.90;;;;;;5091477;28;20051;-52
2023/03/14 08:33:29;;;;;;;12.43;6.97;;;10.80;99.90;;;;;;5072478;28;20073;-55
2023/03/14 08:35:56;;;;;;;16.93;10.93;;;10.80;99.90;;;;;;5091006;28;20047;-53
2023/03/14 08:38:22;;;;;;;10.37;5.87;;;10.70;99.90;;;;;;5089911;28;20040;-53
2023/03/14 08:40:49;;;;;;;8.03;3.60;;;10.70;99.90;;;;;;5091516;28;20460;-49
2023/03/14 08:43:15;;;;;;;4.53;2.80;;;10.60;99.90;;;;;;5090680;28;20021;-51
2023/03/14 08:45:41;;;;;;;4.83;2.40;;;10.50;99.90;;;;;;5089158;28;20572;-55
2023/03/14 08:48:06;;;;;;;3.50;2.10;;;10.50;99.90;;;;;;5086932;28;20078;-54
2023/03/14 08:50:33;;;;;;;3.93;2.10;;;10.40;99.90;;;;;;5087731;28;20085;-52
2023/03/14 08:52:59;;;;;;;3.80;1.77;;;10.30;99.90;;;;;;5087270;28;20028;-55
2023/03/14 08:55:27;;;;;;;3.90;1.57;;;10.30;99.90;;;;;;5090763;28;20039;-55
2023/03/14 08:57:53;;;;;;;2.90;1.90;;;10.20;99.90;;;;;;5090139;28;20126;-54
2023/03/14 09:00:19;;;;;;;4.53;1.77;;;10.20;99.90;;;;;;5090411;28;20472;-54
2023/03/14 09:02:45;;;;;;;5.57;1.80;;;10.20;99.90;;;;;;5090232;28;20039;-50
2023/03/14 09:05:12;;;;;;;3.27;1.00;;;10.10;99.90;;;;;;5090505;28;20036;-52
2023/03/14 09:07:38;;;;;;;6.47;1.60;;;10.00;99.90;;;;;;5088900;28;20081;-51
2023/03/14 09:10:05;;;;;;;2.70;1.03;;;9.90;99.90;;;;;;5090512;28;20060;-52
2023/03/14 09:12:31;;;;;;;4.37;1.57;;;10.00;99.90;;;;;;5090288;28;20111;-52
2023/03/14 09:14:56;;;;;;;1.90;0.70;;;10.00;99.90;;;;;;5090298;28;20119;-53
2023/03/14 09:17:22;;;;;;;3.23;0.70;;;9.60;99.90;;;;;;5089863;28;20119;-50
2023/03/14 09:19:48;;;;;;;2.93;0.77;;;9.20;99.90;;;;;;5090058;28;20028;-52
2023/03/14 09:22:14;;;;;;;2.03;0.73;;;8.80;99.90;;;;;;5089702;28;20424;-51
2023/03/14 09:24:40;;;;;;;3.47;1.00;;;8.60;99.90;;;;;;5089028;28;20032;-51
2023/03/14 09:27:07;;;;;;;6.37;1.40;;;8.50;99.90;;;;;;5089900;28;20051;-52
2023/03/14 09:29:33;;;;;;;4.10;0.80;;;8.40;99.90;;;;;;5089853;28;20028;-53
2023/03/14 09:31:59;;;;;;;2.40;0.80;;;8.20;99.90;;;;;;5089865;28;20032;-49
2023/03/14 09:34:25;;;;;;;2.97;0.83;;;8.10;99.90;;;;;;5089795;28;20093;-52
2023/03/14 09:36:51;;;;;;;2.00;0.80;;;8.10;99.90;;;;;;5088856;28;20019;-55
2023/03/14 09:39:17;;;;;;;2.10;0.90;;;8.10;99.90;;;;;;5088745;28;20511;-47
2023/03/14 09:41:54;;;;;;;1.97;1.30;;;8.10;99.90;;;;;;5089574;28;20150;-54
2023/03/14 09:44:25;;;;;;;3.93;1.17;;;8.10;99.90;;;;;;5089261;28;20040;-48
2023/03/14 09:46:54;;;;;;;3.83;1.30;;;8.20;99.90;;;;;;5089294;28;20483;-52
2023/03/14 09:49:24;;;;;;;3.13;1.25;;;8.20;99.90;;;;;;5089349;28;20032;-49
2023/03/14 09:51:54;;;;;;;4.17;2.30;;;8.20;99.90;;;;;;5090911;28;20024;-48
2023/03/14 09:54:31;;;;;;;5.37;2.77;;;8.10;99.90;;;;;;5086686;28;20104;-55
2023/03/14 09:56:57;;;;;;;4.03;1.90;;;8.00;99.90;;;;;;5087742;28;20053;-51
2023/03/14 09:59:23;;;;;;;3.80;1.90;;;8.10;99.90;;;;;;5089130;28;20119;-54
2023/03/14 10:01:49;;;;;;;3.93;2.00;;;8.10;99.90;;;;;;5089161;28;20109;-55
2023/03/14 10:04:20;;;;;;;4.00;1.93;;;8.10;99.90;;;;;;5089437;28;20373;-56
2023/03/14 10:06:47;;;;;;;4.07;1.90;;;8.00;99.90;;;;;;5071436;28;20024;-54
2023/03/14 10:09:26;;;;;;;6.10;2.30;;;7.90;99.90;;;;;;5089401;28;20465;-49
2023/03/14 10:11:57;;;;;;;5.03;2.30;;;7.90;99.90;;;;;;5089371;28;20062;-50
2023/03/14 10:14:37;;;;;;;4.53;2.43;;;7.90;99.90;;;;;;5090007;28;20032;-52
2023/03/14 10:17:12;;;;;;;3.50;1.97;;;7.90;99.90;;;;;;5090768;28;20035;-50
2023/03/14 10:19:53;;;;;;;3.40;1.70;;;7.90;99.90;;;;;;5090642;28;20123;-50
2023/03/14 10:22:20;;;;;;;3.97;1.80;;;8.00;99.90;;;;;;5090668;28;20032;-50
2023/03/14 10:24:52;;;;;;;5.13;2.20;;;8.00;99.90;;;;;;5090587;28;20039;-54
2023/03/14 10:27:21;;;;;;;4.00;2.20;;;8.00;99.90;;;;;;5090612;28;20032;-52
2023/03/14 10:29:59;;;;;;;5.47;2.33;;;8.00;99.90;;;;;;5090656;28;20032;-52
2023/03/14 10:32:36;;;;;;;4.07;2.17;;;7.90;99.90;;;;;;5090666;28;20038;-52
2023/03/14 10:35:14;;;;;;;4.63;2.20;;;7.90;99.90;;;;;;5090462;28;20046;-49
2023/03/14 10:38:01;;;;;;;3.10;1.57;;;7.90;99.90;;;;;;5090352;28;20059;-49
2023/03/14 10:40:38;;;;;;;3.23;1.20;;;7.80;99.90;;;;;;5090540;28;20032;-52
2023/03/14 10:43:07;;;;;;;5.57;1.77;;;7.70;99.90;;;;;;5090413;28;20040;-52
2023/03/14 10:45:39;;;;;;;6.53;2.07;;;7.50;99.90;;;;;;5090322;28;20028;-52
2023/03/14 10:48:28;;;;;;;4.23;1.73;;;7.40;99.90;;;;;;5090255;28;20111;-51
2023/03/14 10:51:03;;;;;;;3.47;0.97;;;7.20;99.90;;;;;;5090321;28;20025;-49
2023/03/14 10:53:47;;;;;;;2.83;1.00;;;7.00;99.90;;;;;;5090179;28;20028;-53
2023/03/14 10:56:22;;;;;;;4.37;1.40;;;6.90;99.90;;;;;;5090357;28;20028;-51
2023/03/14 10:58:50;;;;;;;5.60;1.93;;;6.80;99.90;;;;;;5090298;28;20480;-51
2023/03/14 11:01:34;;;;;;;4.47;1.30;;;6.80;99.90;;;;;;5090201;28;20444;-51
2023/03/14 11:04:09;;;;;;;8.97;1.60;;;6.80;99.90;;;;;;5089936;28;20510;-50
2023/03/14 11:06:43;;;;;;;4.43;1.00;;;6.80;99.90;;;;;;5090153;28;20060;-52
2023/03/14 11:09:36;;;;;;;2.43;1.10;;;7.10;99.90;;;;;;5090310;28;20035;-52
2023/03/14 11:12:14;;;;;;;1.93;0.70;;;7.50;99.90;;;;;;5090166;28;20036;-49
2023/03/14 11:14:46;;;;;;;4.97;1.23;;;7.70;99.90;;;;;;5090089;28;20028;-48
2023/03/14 11:17:38;;;;;;;4.90;1.20;;;7.90;99.90;;;;;;5090382;28;20028;-53
2023/03/14 11:20:09;;;;;;;6.13;1.57;;;7.80;99.90;;;;;;5090117;28;20046;-52
2023/03/14 11:22:38;;;;;;;5.43;1.70;;;7.70;99.90;;;;;;5090280;28;20035;-52
2023/03/14 11:25:24;;;;;;;7.13;2.00;;;7.60;99.90;;;;;;5075842;28;20441;-53
2023/03/14 11:28:17;;;;;;;3.93;1.67;;;7.50;99.90;;;;;;5093947;28;20093;-51
2023/03/14 11:30:49;;;;;;;4.43;1.93;;;7.40;99.90;;;;;;5093856;28;20039;-51
2023/03/14 11:33:26;;;;;;;6.27;1.70;;;7.40;99.90;;;;;;5093961;28;20036;-49
2023/03/14 11:36:04;;;;;;;6.00;1.80;;;7.50;99.90;;;;;;5094229;28;20038;-47
2023/03/14 11:38:39;;;;;;;11.88;2.15;;;7.60;99.90;;;;;;5093684;28;20043;-50
2023/03/14 11:41:12;;;;;;;8.60;1.47;;;7.60;99.90;;;;;;5093707;28;20031;-47
2023/03/14 11:43:42;;;;;;;6.10;1.07;;;7.60;99.90;;;;;;5093371;28;20036;-48
2023/03/14 11:46:17;;;;;;;3.97;1.30;;;7.60;99.90;;;;;;5093631;28;20024;-51
2023/03/14 11:49:01;;;;;;;7.40;1.57;;;7.70;99.90;;;;;;5093560;28;20101;-50
2023/03/14 11:51:34;;;;;;;5.87;1.60;;;7.70;99.90;;;;;;5093530;28;20377;-49
2023/03/14 11:54:08;;;;;;;3.63;1.40;;;7.60;99.90;;;;;;5093319;28;20071;-49
2023/03/14 11:56:50;;;;;;;3.53;1.43;;;7.50;99.90;;;;;;5093167;28;20036;-51
2023/03/14 11:59:48;;;;;;;4.67;1.13;;;7.60;99.90;;;;;;5093327;28;20480;-48
2023/03/14 12:02:29;;;;;;;7.10;1.07;;;7.60;99.90;;;;;;5075191;28;20530;-47
2023/03/14 12:05:25;;;;;;;4.87;1.10;;;7.50;99.90;;;;;;5092950;28;20502;-50
2023/03/14 12:08:09;;;;;;;7.77;1.50;;;7.70;99.90;;;;;;5092899;28;20548;-50
2023/03/14 12:10:48;;;;;;;5.93;1.63;;;8.20;99.90;;;;;;5093078;28;20062;-48
2023/03/14 12:13:14;;;;;;;;;;;8.80;99.90;;;;;;5093763;28;20119;-51
2023/03/14 12:15:47;;;;;;;6.80;1.60;;;8.90;99.90;;;;;;5092781;28;19953;-50
2023/03/14 12:18:32;;;;;;;8.57;2.17;;;8.50;99.90;;;;;;5092823;28;20395;-52
2023/03/14 12:21:01;;;;;;;8.27;2.60;;;8.40;99.90;;;;;;5092938;28;20480;-47
2023/03/14 12:23:34;;;;;;;9.80;2.47;;;8.50;99.90;;;;;;5092478;28;20412;-48
2023/03/14 12:26:29;;;;;;;11.47;2.23;;;8.50;99.90;;;;;;5092803;28;20047;-50
2023/03/14 12:28:57;;;;;;;12.47;2.30;;;8.60;99.90;;;;;;5090255;28;20042;-53
2023/03/14 12:31:29;;;;;;;6.85;1.67;;;8.50;99.90;;;;;;5092935;28;20027;-50
2023/03/14 12:34:10;;;;;;;11.57;1.80;;;8.40;99.90;;;;;;5092579;28;20043;-47
2023/03/14 12:36:48;;;;;;;10.03;1.60;;;8.10;99.90;;;;;;5092144;28;20089;-52
2023/03/14 12:39:21;;;;;;;9.65;1.30;;;7.80;99.90;;;;;;5092560;28;20036;-47
2023/03/14 12:41:53;;;;;;;8.00;1.57;;;7.40;99.90;;;;;;5092649;28;20042;-52
2023/03/14 12:44:30;;;;;;;10.77;1.47;;;7.30;99.90;;;;;;5092221;28;20035;-48
2023/03/14 12:47:12;;;;;;;6.30;2.23;;;7.30;99.90;;;;;;5092176;28;20031;-49
2023/03/14 12:49:38;;;;;;;11.03;2.80;;;7.50;99.90;;;;;;5092331;28;20380;-50
2023/03/14 12:52:34;;;;;;;10.03;2.37;;;7.50;99.90;;;;;;5092411;28;20028;-48
2023/03/14 12:55:17;;;;;;;18.00;3.30;;;7.50;99.90;;;;;;5053683;28;20229;-52
2023/03/14 12:58:03;;;;;;;10.37;2.30;;;7.60;99.90;;;;;;5092496;28;20038;-52
2023/03/14 13:00:39;;;;;;;11.37;2.10;;;7.80;99.90;;;;;;5092065;28;20035;-49
2023/03/14 13:03:19;;;;;;;15.80;3.20;;;8.00;99.90;;;;;;5092008;28;20062;-52
2023/03/14 13:05:55;;;;;;;18.67;2.60;;;8.10;99.90;;;;;;5091962;28;20534;-49
2023/03/14 13:08:56;;;;;;;13.13;2.17;;;7.90;99.90;;;;;;5091737;28;20076;-53
2023/03/14 13:11:23;;;;;;;12.10;2.40;;;7.80;99.90;;;;;;5048494;28;20386;-49
2023/03/14 13:13:56;;;;;;;12.13;1.80;;;7.80;99.90;;;;;;5091559;28;20506;-53
2023/03/14 13:16:22;;;;;;;10.37;2.30;;;7.50;99.90;;;;;;5091686;28;20060;-50